sensor_id;sensor_type;location;lat;lon;timestamp;pressure;altitude;pressure_sealevel;temperature
7882;BMP180;3986;41.884;23.466;2024-03-08T00:00:16;91821.00;;;5.60
7882;BMP180;3986;41.884;23.466;2024-03-08T00:02:44;91817.00;;;5.80
7882;BMP180;3986;41.884;23.466;2024-03-08T00:05:12;91805.00;;;5.80
7882;BMP180;3986;41.884;23.466;2024-03-08T00:07:39;91816.00;;;5.80
7882;BMP180;3986;41.884;23.466;2024-03-08T00:10:09;91826.00;;;5.70
7882;BMP180;3986;41.884;23.466;2024-03-08T00:12:36;91818.00;;;5.70
7882;BMP180;3986;41.884;23.466;2024-03-08T00:15:04;91808.00;;;5.50
7882;BMP180;3986;41.884;23.466;2024-03-08T00:17:31;91802.00;;;5.00
7882;BMP180;3986;41.884;23.466;2024-03-08T00:19:58;91817.00;;;4.90
7882;BMP180;3986;41.884;23.466;2024-03-08T00:22:25;91814.00;;;4.90
7882;BMP180;3986;41.884;23.466;2024-03-08T00:24:52;91814.00;;;5.20
7882;BMP180;3986;41.884;23.466;2024-03-08T00:27:20;91804.00;;;5.30
7882;BMP180;3986;41.884;23.466;2024-03-08T00:29:47;91804.00;;;5.30
7882;BMP180;3986;41.884;23.466;2024-03-08T00:32:14;91797.00;;;5.30
7882;BMP180;3986;41.884;23.466;2024-03-08T00:34:42;91800.00;;;5.30
7882;BMP180;3986;41.884;23.466;2024-03-08T00:37:09;91802.00;;;5.20
7882;BMP180;3986;41.884;23.466;2024-03-08T00:39:35;91803.00;;;5.10
7882;BMP180;3986;41.884;23.466;2024-03-08T00:42:02;91796.00;;;5.00
7882;BMP180;3986;41.884;23.466;2024-03-08T00:44:30;91798.00;;;5.00
7882;BMP180;3986;41.884;23.466;2024-03-08T00:46:57;91787.00;;;5.00
7882;BMP180;3986;41.884;23.466;2024-03-08T00:49:24;91787.00;;;4.90
7882;BMP180;3986;41.884;23.466;2024-03-08T00:51:51;91779.00;;;4.80
7882;BMP180;3986;41.884;23.466;2024-03-08T00:54:18;91783.00;;;4.80
7882;BMP180;3986;41.884;23.466;2024-03-08T00:56:44;91787.00;;;4.80
7882;BMP180;3986;41.884;23.466;2024-03-08T00:59:11;91786.00;;;4.70
7882;BMP180;3986;41.884;23.466;2024-03-08T01:01:41;91771.00;;;4.70
7882;BMP180;3986;41.884;23.466;2024-03-08T01:04:09;91778.00;;;4.60
7882;BMP180;3986;41.884;23.466;2024-03-08T01:06:37;91776.00;;;4.60
7882;BMP180;3986;41.884;23.466;2024-03-08T01:09:03;91773.00;;;4.60
7882;BMP180;3986;41.884;23.466;2024-03-08T01:11:32;91774.00;;;4.60
7882;BMP180;3986;41.884;23.466;2024-03-08T01:13:59;91763.00;;;4.10
7882;BMP180;3986;41.884;23.466;2024-03-08T01:16:26;91766.00;;;3.80
7882;BMP180;3986;41.884;23.466;2024-03-08T01:18:54;91766.00;;;4.00
7882;BMP180;3986;41.884;23.466;2024-03-08T01:21:21;91757.00;;;4.20
7882;BMP180;3986;41.884;23.466;2024-03-08T01:23:48;91764.00;;;4.30
7882;BMP180;3986;41.884;23.466;2024-03-08T01:26:15;91756.00;;;4.30
7882;BMP180;3986;41.884;23.466;2024-03-08T01:28:41;91745.00;;;4.00
7882;BMP180;3986;41.884;23.466;2024-03-08T01:31:08;91750.00;;;3.80
7882;BMP180;3986;41.884;23.466;2024-03-08T01:33:35;91757.00;;;3.60
7882;BMP180;3986;41.884;23.466;2024-03-08T01:36:04;91755.00;;;3.60
7882;BMP180;3986;41.884;23.466;2024-03-08T01:38:31;91760.00;;;3.90
7882;BMP180;3986;41.884;23.466;2024-03-08T01:40:57;91773.00;;;3.80
7882;BMP180;3986;41.884;23.466;2024-03-08T01:43:26;91762.00;;;3.70
7882;BMP180;3986;41.884;23.466;2024-03-08T01:45:54;91767.00;;;3.90
7882;BMP180;3986;41.884;23.466;2024-03-08T01:48:21;91765.00;;;4.00
7882;BMP180;3986;41.884;23.466;2024-03-08T01:50:49;91766.00;;;4.10
7882;BMP180;3986;41.884;23.466;2024-03-08T01:53:18;91775.00;;;4.10
7882;BMP180;3986;41.884;23.466;2024-03-08T01:55:47;91778.00;;;4.20
7882;BMP180;3986;41.884;23.466;2024-03-08T01:58:14;91772.00;;;4.40
7882;BMP180;3986;41.884;23.466;2024-03-08T02:00:42;91770.00;;;4.30
7882;BMP180;3986;41.884;23.466;2024-03-08T02:03:10;91767.00;;;4.10
7882;BMP180;3986;41.884;23.466;2024-03-08T02:05:37;91769.00;;;4.30
7882;BMP180;3986;41.884;23.466;2024-03-08T02:08:06;91657.00;;;3.90
7882;BMP180;3986;41.884;23.466;2024-03-08T02:10:34;91783.00;;;3.80
7882;BMP180;3986;41.884;23.466;2024-03-08T02:13:02;91771.00;;;4.10
7882;BMP180;3986;41.884;23.466;2024-03-08T02:15:53;91778.00;;;4.10
7882;BMP180;3986;41.884;23.466;2024-03-08T02:18:20;91775.00;;;4.00
7882;BMP180;3986;41.884;23.466;2024-03-08T02:20:49;91780.00;;;4.10
7882;BMP180;3986;41.884;23.466;2024-03-08T02:23:16;91788.00;;;4.40
7882;BMP180;3986;41.884;23.466;2024-03-08T02:25:43;91787.00;;;4.20
7882;BMP180;3986;41.884;23.466;2024-03-08T02:28:10;91792.00;;;4.20
7882;BMP180;3986;41.884;23.466;2024-03-08T02:30:37;91799.00;;;4.50
7882;BMP180;3986;41.884;23.466;2024-03-08T02:33:04;91795.00;;;3.90
7882;BMP180;3986;41.884;23.466;2024-03-08T02:35:31;91791.00;;;3.90
7882;BMP180;3986;41.884;23.466;2024-03-08T02:37:59;91800.00;;;3.80
7882;BMP180;3986;41.884;23.466;2024-03-08T02:40:26;91800.00;;;3.70
7882;BMP180;3986;41.884;23.466;2024-03-08T02:42:53;91792.00;;;3.60
7882;BMP180;3986;41.884;23.466;2024-03-08T02:45:20;91802.00;;;3.80
7882;BMP180;3986;41.884;23.466;2024-03-08T02:47:47;91799.00;;;4.10
7882;BMP180;3986;41.884;23.466;2024-03-08T02:50:15;91797.00;;;4.20
7882;BMP180;3986;41.884;23.466;2024-03-08T02:52:42;91807.00;;;4.40
7882;BMP180;3986;41.884;23.466;2024-03-08T02:55:10;91798.00;;;4.10
7882;BMP180;3986;41.884;23.466;2024-03-08T02:57:40;91798.00;;;3.80
7882;BMP180;3986;41.884;23.466;2024-03-08T03:00:09;91793.00;;;4.10
7882;BMP180;3986;41.884;23.466;2024-03-08T03:02:36;91805.00;;;4.20
7882;BMP180;3986;41.884;23.466;2024-03-08T03:05:04;91811.00;;;4.20
7882;BMP180;3986;41.884;23.466;2024-03-08T03:07:31;91803.00;;;4.10
7882;BMP180;3986;41.884;23.466;2024-03-08T03:09:58;91809.00;;;4.50
7882;BMP180;3986;41.884;23.466;2024-03-08T03:12:27;91806.00;;;4.10
7882;BMP180;3986;41.884;23.466;2024-03-08T03:14:54;91808.00;;;4.20
7882;BMP180;3986;41.884;23.466;2024-03-08T03:17:21;91810.00;;;4.00
7882;BMP180;3986;41.884;23.466;2024-03-08T03:19:48;91811.00;;;4.40
7882;BMP180;3986;41.884;23.466;2024-03-08T03:22:15;91814.00;;;4.40
7882;BMP180;3986;41.884;23.466;2024-03-08T03:24:42;91807.00;;;4.60
7882;BMP180;3986;41.884;23.466;2024-03-08T03:27:09;91812.00;;;4.60
7882;BMP180;3986;41.884;23.466;2024-03-08T03:29:38;91821.00;;;4.70
7882;BMP180;3986;41.884;23.466;2024-03-08T03:32:05;91814.00;;;4.80
7882;BMP180;3986;41.884;23.466;2024-03-08T03:34:33;91815.00;;;4.70
7882;BMP180;3986;41.884;23.466;2024-03-08T03:37:01;91818.00;;;4.80
7882;BMP180;3986;41.884;23.466;2024-03-08T03:39:28;91821.00;;;4.80
7882;BMP180;3986;41.884;23.466;2024-03-08T03:41:57;91822.00;;;4.80
7882;BMP180;3986;41.884;23.466;2024-03-08T03:44:24;91820.00;;;4.80
7882;BMP180;3986;41.884;23.466;2024-03-08T03:46:52;91827.00;;;4.90
7882;BMP180;3986;41.884;23.466;2024-03-08T03:49:19;91836.00;;;4.50
7882;BMP180;3986;41.884;23.466;2024-03-08T03:51:46;91819.00;;;4.60
7882;BMP180;3986;41.884;23.466;2024-03-08T03:54:13;91816.00;;;4.70
7882;BMP180;3986;41.884;23.466;2024-03-08T03:56:39;91822.00;;;4.80
7882;BMP180;3986;41.884;23.466;2024-03-08T03:59:06;91820.00;;;4.70
7882;BMP180;3986;41.884;23.466;2024-03-08T04:01:33;91826.00;;;4.50
7882;BMP180;3986;41.884;23.466;2024-03-08T04:04:02;91823.00;;;4.60
7882;BMP180;3986;41.884;23.466;2024-03-08T04:06:28;91824.00;;;4.70
7882;BMP180;3986;41.884;23.466;2024-03-08T04:08:55;91835.00;;;4.80
7882;BMP180;3986;41.884;23.466;2024-03-08T04:11:22;91836.00;;;4.90
7882;BMP180;3986;41.884;23.466;2024-03-08T04:13:49;91834.00;;;4.90
7882;BMP180;3986;41.884;23.466;2024-03-08T04:16:15;91831.00;;;4.90
7882;BMP180;3986;41.884;23.466;2024-03-08T04:18:44;91834.00;;;4.80
7882;BMP180;3986;41.884;23.466;2024-03-08T04:21:12;91838.00;;;4.80
7882;BMP180;3986;41.884;23.466;2024-03-08T04:23:39;91842.00;;;4.90
7882;BMP180;3986;41.884;23.466;2024-03-08T04:26:05;91846.00;;;4.70
7882;BMP180;3986;41.884;23.466;2024-03-08T04:28:34;91844.00;;;4.70
7882;BMP180;3986;41.884;23.466;2024-03-08T04:31:02;91845.00;;;4.80
7882;BMP180;3986;41.884;23.466;2024-03-08T04:33:29;91849.00;;;4.80
7882;BMP180;3986;41.884;23.466;2024-03-08T04:35:56;91851.00;;;4.50
7882;BMP180;3986;41.884;23.466;2024-03-08T04:38:24;91858.00;;;4.50
7882;BMP180;3986;41.884;23.466;2024-03-08T04:40:51;91852.00;;;4.50
7882;BMP180;3986;41.884;23.466;2024-03-08T04:43:19;91859.00;;;4.60
7882;BMP180;3986;41.884;23.466;2024-03-08T04:45:46;91858.00;;;4.20
7882;BMP180;3986;41.884;23.466;2024-03-08T04:48:14;91841.00;;;4.50
7882;BMP180;3986;41.884;23.466;2024-03-08T04:50:41;91864.00;;;4.60
7882;BMP180;3986;41.884;23.466;2024-03-08T04:53:07;91865.00;;;4.60
7882;BMP180;3986;41.884;23.466;2024-03-08T04:55:36;91871.00;;;4.60
7882;BMP180;3986;41.884;23.466;2024-03-08T04:58:03;91871.00;;;4.60
7882;BMP180;3986;41.884;23.466;2024-03-08T05:00:31;91871.00;;;4.60
7882;BMP180;3986;41.884;23.466;2024-03-08T05:02:58;91874.00;;;4.60
7882;BMP180;3986;41.884;23.466;2024-03-08T05:05:25;91874.00;;;4.50
7882;BMP180;3986;41.884;23.466;2024-03-08T05:07:53;91871.00;;;4.50
7882;BMP180;3986;41.884;23.466;2024-03-08T05:10:20;91872.00;;;4.50
7882;BMP180;3986;41.884;23.466;2024-03-08T05:12:48;91876.00;;;4.50
7882;BMP180;3986;41.884;23.466;2024-03-08T05:15:16;91845.00;;;4.80
7882;BMP180;3986;41.884;23.466;2024-03-08T05:17:42;91882.00;;;4.40
7882;BMP180;3986;41.884;23.466;2024-03-08T05:20:10;91896.00;;;4.70
7882;BMP180;3986;41.884;23.466;2024-03-08T05:22:38;91887.00;;;4.80
7882;BMP180;3986;41.884;23.466;2024-03-08T05:25:06;91883.00;;;4.60
7882;BMP180;3986;41.884;23.466;2024-03-08T05:27:34;91894.00;;;4.90
7882;BMP180;3986;41.884;23.466;2024-03-08T05:30:03;91902.00;;;5.00
7882;BMP180;3986;41.884;23.466;2024-03-08T05:32:31;91901.00;;;5.50
7882;BMP180;3986;41.884;23.466;2024-03-08T05:34:58;91901.00;;;6.00
7882;BMP180;3986;41.884;23.466;2024-03-08T05:37:24;91909.00;;;6.00
7882;BMP180;3986;41.884;23.466;2024-03-08T05:39:51;91902.00;;;6.00
7882;BMP180;3986;41.884;23.466;2024-03-08T05:42:19;91907.00;;;6.10
7882;BMP180;3986;41.884;23.466;2024-03-08T05:44:45;91907.00;;;6.20
7882;BMP180;3986;41.884;23.466;2024-03-08T05:47:14;91915.00;;;6.40
7882;BMP180;3986;41.884;23.466;2024-03-08T05:49:42;91914.00;;;6.30
7882;BMP180;3986;41.884;23.466;2024-03-08T05:52:09;91906.00;;;6.30
7882;BMP180;3986;41.884;23.466;2024-03-08T05:54:36;91915.00;;;6.00
7882;BMP180;3986;41.884;23.466;2024-03-08T05:57:03;91917.00;;;6.00
7882;BMP180;3986;41.884;23.466;2024-03-08T05:59:31;91914.00;;;6.00
7882;BMP180;3986;41.884;23.466;2024-03-08T06:01:58;91921.00;;;5.90
7882;BMP180;3986;41.884;23.466;2024-03-08T06:04:26;91928.00;;;5.90
7882;BMP180;3986;41.884;23.466;2024-03-08T06:06:54;91928.00;;;5.80
7882;BMP180;3986;41.884;23.466;2024-03-08T06:09:23;91934.00;;;5.70
7882;BMP180;3986;41.884;23.466;2024-03-08T06:11:50;91924.00;;;5.50
7882;BMP180;3986;41.884;23.466;2024-03-08T06:14:17;91932.00;;;5.40
7882;BMP180;3986;41.884;23.466;2024-03-08T06:16:44;91931.00;;;5.60
7882;BMP180;3986;41.884;23.466;2024-03-08T06:19:12;91928.00;;;5.70
7882;BMP180;3986;41.884;23.466;2024-03-08T06:21:40;91929.00;;;5.80
7882;BMP180;3986;41.884;23.466;2024-03-08T06:24:07;91930.00;;;6.10
7882;BMP180;3986;41.884;23.466;2024-03-08T06:26:34;91931.00;;;6.40
7882;BMP180;3986;41.884;23.466;2024-03-08T06:29:03;91923.00;;;6.60
7882;BMP180;3986;41.884;23.466;2024-03-08T06:31:32;91880.00;;;6.90
7882;BMP180;3986;41.884;23.466;2024-03-08T06:33:59;91937.00;;;7.00
7882;BMP180;3986;41.884;23.466;2024-03-08T06:36:25;91927.00;;;7.00
7882;BMP180;3986;41.884;23.466;2024-03-08T06:38:54;91933.00;;;7.20
7882;BMP180;3986;41.884;23.466;2024-03-08T06:41:23;91934.00;;;7.20
7882;BMP180;3986;41.884;23.466;2024-03-08T06:43:49;91935.00;;;7.50
7882;BMP180;3986;41.884;23.466;2024-03-08T06:46:17;91930.00;;;7.50
7882;BMP180;3986;41.884;23.466;2024-03-08T06:48:46;91940.00;;;7.70
7882;BMP180;3986;41.884;23.466;2024-03-08T06:51:12;91933.00;;;7.90
7882;BMP180;3986;41.884;23.466;2024-03-08T06:53:39;91936.00;;;8.00
7882;BMP180;3986;41.884;23.466;2024-03-08T06:56:08;91856.00;;;8.20
7882;BMP180;3986;41.884;23.466;2024-03-08T06:58:34;91930.00;;;8.00
7882;BMP180;3986;41.884;23.466;2024-03-08T07:01:01;91942.00;;;8.50
7882;BMP180;3986;41.884;23.466;2024-03-08T07:03:29;91945.00;;;8.80
7882;BMP180;3986;41.884;23.466;2024-03-08T07:05:57;91932.00;;;9.10
7882;BMP180;3986;41.884;23.466;2024-03-08T07:08:24;91940.00;;;9.10
7882;BMP180;3986;41.884;23.466;2024-03-08T07:10:52;91941.00;;;9.30
7882;BMP180;3986;41.884;23.466;2024-03-08T07:13:20;91939.00;;;9.10
7882;BMP180;3986;41.884;23.466;2024-03-08T07:15:47;91940.00;;;9.40
7882;BMP180;3986;41.884;23.466;2024-03-08T07:18:14;91938.00;;;9.20
7882;BMP180;3986;41.884;23.466;2024-03-08T07:20:41;91937.00;;;9.50
7882;BMP180;3986;41.884;23.466;2024-03-08T07:23:08;91935.00;;;9.80
7882;BMP180;3986;41.884;23.466;2024-03-08T07:25:36;91940.00;;;8.90
7882;BMP180;3986;41.884;23.466;2024-03-08T07:28:04;91938.00;;;9.00
7882;BMP180;3986;41.884;23.466;2024-03-08T07:30:33;91937.00;;;9.70
7882;BMP180;3986;41.884;23.466;2024-03-08T07:33:26;91945.00;;;10.20
7882;BMP180;3986;41.884;23.466;2024-03-08T07:35:53;91952.00;;;8.90
7882;BMP180;3986;41.884;23.466;2024-03-08T07:38:21;91938.00;;;9.40
7882;BMP180;3986;41.884;23.466;2024-03-08T07:40:48;91939.00;;;9.80
7882;BMP180;3986;41.884;23.466;2024-03-08T07:43:15;91941.00;;;10.60
7882;BMP180;3986;41.884;23.466;2024-03-08T07:45:43;91947.00;;;10.30
7882;BMP180;3986;41.884;23.466;2024-03-08T07:48:10;91942.00;;;11.00
7882;BMP180;3986;41.884;23.466;2024-03-08T07:50:38;91947.00;;;11.40
7882;BMP180;3986;41.884;23.466;2024-03-08T07:53:05;91943.00;;;11.00
7882;BMP180;3986;41.884;23.466;2024-03-08T07:55:32;91950.00;;;11.30
7882;BMP180;3986;41.884;23.466;2024-03-08T07:58:00;91951.00;;;11.30
7882;BMP180;3986;41.884;23.466;2024-03-08T08:00:28;91951.00;;;10.50
7882;BMP180;3986;41.884;23.466;2024-03-08T08:02:58;91949.00;;;11.70
7882;BMP180;3986;41.884;23.466;2024-03-08T08:05:24;91941.00;;;12.30
7882;BMP180;3986;41.884;23.466;2024-03-08T08:07:51;91944.00;;;11.90
7882;BMP180;3986;41.884;23.466;2024-03-08T08:10:18;91941.00;;;12.20
7882;BMP180;3986;41.884;23.466;2024-03-08T08:12:47;91946.00;;;12.10
7882;BMP180;3986;41.884;23.466;2024-03-08T08:15:14;91952.00;;;12.70
7882;BMP180;3986;41.884;23.466;2024-03-08T08:17:41;91849.00;;;13.10
7882;BMP180;3986;41.884;23.466;2024-03-08T08:20:10;91942.00;;;12.30
7882;BMP180;3986;41.884;23.466;2024-03-08T08:22:38;91953.00;;;13.20
7882;BMP180;3986;41.884;23.466;2024-03-08T08:25:06;91941.00;;;14.30
7882;BMP180;3986;41.884;23.466;2024-03-08T08:27:33;91939.00;;;15.70
7882;BMP180;3986;41.884;23.466;2024-03-08T08:30:02;91950.00;;;15.40
7882;BMP180;3986;41.884;23.466;2024-03-08T08:32:33;91940.00;;;14.20
7882;BMP180;3986;41.884;23.466;2024-03-08T08:35:00;91946.00;;;16.20
7882;BMP180;3986;41.884;23.466;2024-03-08T08:37:29;91941.00;;;17.10
7882;BMP180;3986;41.884;23.466;2024-03-08T08:39:56;91936.00;;;16.80
7882;BMP180;3986;41.884;23.466;2024-03-08T08:42:23;91886.00;;;15.20
7882;BMP180;3986;41.884;23.466;2024-03-08T08:44:51;91945.00;;;16.40
7882;BMP180;3986;41.884;23.466;2024-03-08T08:47:18;91939.00;;;16.20
7882;BMP180;3986;41.884;23.466;2024-03-08T08:49:45;91936.00;;;14.10
7882;BMP180;3986;41.884;23.466;2024-03-08T08:52:12;91924.00;;;14.70
7882;BMP180;3986;41.884;23.466;2024-03-08T08:54:42;91937.00;;;19.00
7882;BMP180;3986;41.884;23.466;2024-03-08T08:57:10;91930.00;;;21.00
7882;BMP180;3986;41.884;23.466;2024-03-08T08:59:37;91934.00;;;18.80
7882;BMP180;3986;41.884;23.466;2024-03-08T09:02:05;91935.00;;;19.20
7882;BMP180;3986;41.884;23.466;2024-03-08T09:04:32;91930.00;;;16.80
7882;BMP180;3986;41.884;23.466;2024-03-08T09:06:58;91936.00;;;19.50
7882;BMP180;3986;41.884;23.466;2024-03-08T09:09:26;91940.00;;;20.80
7882;BMP180;3986;41.884;23.466;2024-03-08T09:11:56;91933.00;;;17.70
7882;BMP180;3986;41.884;23.466;2024-03-08T09:14:23;91933.00;;;14.50
7882;BMP180;3986;41.884;23.466;2024-03-08T09:16:51;91928.00;;;11.70
7882;BMP180;3986;41.884;23.466;2024-03-08T09:19:18;91929.00;;;11.30
7882;BMP180;3986;41.884;23.466;2024-03-08T09:21:46;91923.00;;;10.90
7882;BMP180;3986;41.884;23.466;2024-03-08T09:24:12;91908.00;;;12.20
7882;BMP180;3986;41.884;23.466;2024-03-08T09:26:39;91925.00;;;11.40
7882;BMP180;3986;41.884;23.466;2024-03-08T09:29:09;91781.00;;;12.00
7882;BMP180;3986;41.884;23.466;2024-03-08T09:31:37;91928.00;;;12.90
7882;BMP180;3986;41.884;23.466;2024-03-08T09:34:05;91925.00;;;13.10
7882;BMP180;3986;41.884;23.466;2024-03-08T09:36:33;91933.00;;;10.10
7882;BMP180;3986;41.884;23.466;2024-03-08T09:39:00;91929.00;;;10.40
7882;BMP180;3986;41.884;23.466;2024-03-08T09:41:27;91939.00;;;11.80
7882;BMP180;3986;41.884;23.466;2024-03-08T09:43:56;91917.00;;;11.50
7882;BMP180;3986;41.884;23.466;2024-03-08T09:46:26;91929.00;;;11.00
7882;BMP180;3986;41.884;23.466;2024-03-08T09:48:53;91931.00;;;12.10
7882;BMP180;3986;41.884;23.466;2024-03-08T09:51:21;91944.00;;;10.70
7882;BMP180;3986;41.884;23.466;2024-03-08T09:53:52;91937.00;;;11.10
7882;BMP180;3986;41.884;23.466;2024-03-08T09:56:20;91930.00;;;10.90
7882;BMP180;3986;41.884;23.466;2024-03-08T09:58:47;91930.00;;;10.20
7882;BMP180;3986;41.884;23.466;2024-03-08T10:01:46;91933.00;;;10.80
7882;BMP180;3986;41.884;23.466;2024-03-08T10:04:12;91928.00;;;10.00
7882;BMP180;3986;41.884;23.466;2024-03-08T10:06:39;91925.00;;;10.40
7882;BMP180;3986;41.884;23.466;2024-03-08T10:09:06;91937.00;;;11.90
7882;BMP180;3986;41.884;23.466;2024-03-08T10:11:35;91922.00;;;11.80
7882;BMP180;3986;41.884;23.466;2024-03-08T10:14:02;91929.00;;;10.60
7882;BMP180;3986;41.884;23.466;2024-03-08T10:16:29;91932.00;;;10.40
7882;BMP180;3986;41.884;23.466;2024-03-08T10:18:57;91923.00;;;11.40
7882;BMP180;3986;41.884;23.466;2024-03-08T10:21:26;91930.00;;;13.20
7882;BMP180;3986;41.884;23.466;2024-03-08T10:23:53;91922.00;;;18.60
7882;BMP180;3986;41.884;23.466;2024-03-08T10:26:20;91926.00;;;21.50
7882;BMP180;3986;41.884;23.466;2024-03-08T10:28:48;91849.00;;;14.40
7882;BMP180;3986;41.884;23.466;2024-03-08T10:31:15;91920.00;;;15.20
7882;BMP180;3986;41.884;23.466;2024-03-08T10:33:42;91917.00;;;18.30
7882;BMP180;3986;41.884;23.466;2024-03-08T10:36:11;91929.00;;;23.20
7882;BMP180;3986;41.884;23.466;2024-03-08T10:38:40;91931.00;;;26.00
7882;BMP180;3986;41.884;23.466;2024-03-08T10:55:20;91918.00;;;21.40
7882;BMP180;3986;41.884;23.466;2024-03-08T10:57:47;91898.00;;;19.30
7882;BMP180;3986;41.884;23.466;2024-03-08T11:00:14;91904.00;;;19.10
7882;BMP180;3986;41.884;23.466;2024-03-08T11:02:45;91914.00;;;17.40
7882;BMP180;3986;41.884;23.466;2024-03-08T11:05:31;91894.00;;;15.30
7882;BMP180;3986;41.884;23.466;2024-03-08T11:08:00;91895.00;;;20.30
7882;BMP180;3986;41.884;23.466;2024-03-08T11:10:29;91897.00;;;21.00
7882;BMP180;3986;41.884;23.466;2024-03-08T11:12:56;91892.00;;;19.80
7882;BMP180;3986;41.884;23.466;2024-03-08T11:15:24;91889.00;;;21.80
7882;BMP180;3986;41.884;23.466;2024-03-08T11:17:51;91886.00;;;20.80
7882;BMP180;3986;41.884;23.466;2024-03-08T11:20:23;91895.00;;;24.70
7882;BMP180;3986;41.884;23.466;2024-03-08T11:22:52;91883.00;;;22.80
7882;BMP180;3986;41.884;23.466;2024-03-08T11:25:35;91885.00;;;23.20
7882;BMP180;3986;41.884;23.466;2024-03-08T11:28:13;91875.00;;;19.70
7882;BMP180;3986;41.884;23.466;2024-03-08T11:30:47;91873.00;;;21.90
7882;BMP180;3986;41.884;23.466;2024-03-08T11:33:35;91848.00;;;23.00
7882;BMP180;3986;41.884;23.466;2024-03-08T11:36:03;91852.00;;;23.50
7882;BMP180;3986;41.884;23.466;2024-03-08T11:38:40;91857.00;;;23.10
7882;BMP180;3986;41.884;23.466;2024-03-08T11:41:08;91862.00;;;23.30
7882;BMP180;3986;41.884;23.466;2024-03-08T11:43:39;91875.00;;;26.80
7882;BMP180;3986;41.884;23.466;2024-03-08T11:46:10;91878.00;;;22.20
7882;BMP180;3986;41.884;23.466;2024-03-08T11:48:37;91882.00;;;26.60
7882;BMP180;3986;41.884;23.466;2024-03-08T11:51:04;91888.00;;;26.80
7882;BMP180;3986;41.884;23.466;2024-03-08T11:53:31;91882.00;;;25.80
7882;BMP180;3986;41.884;23.466;2024-03-08T11:56:07;91883.00;;;27.20
7882;BMP180;3986;41.884;23.466;2024-03-08T11:58:34;91886.00;;;30.70
7882;BMP180;3986;41.884;23.466;2024-03-08T12:01:03;91883.00;;;28.50
7882;BMP180;3986;41.884;23.466;2024-03-08T12:03:31;91877.00;;;29.40
7882;BMP180;3986;41.884;23.466;2024-03-08T12:05:59;91871.00;;;29.80
7882;BMP180;3986;41.884;23.466;2024-03-08T12:08:26;91873.00;;;26.90
7882;BMP180;3986;41.884;23.466;2024-03-08T12:10:55;91873.00;;;29.60
7882;BMP180;3986;41.884;23.466;2024-03-08T12:13:26;91865.00;;;27.50
7882;BMP180;3986;41.884;23.466;2024-03-08T12:15:56;91874.00;;;28.50
7882;BMP180;3986;41.884;23.466;2024-03-08T12:18:24;91886.00;;;29.40
7882;BMP180;3986;41.884;23.466;2024-03-08T12:20:52;91881.00;;;29.40
7882;BMP180;3986;41.884;23.466;2024-03-08T12:23:19;91872.00;;;25.30
7882;BMP180;3986;41.884;23.466;2024-03-08T12:25:46;91878.00;;;24.70
7882;BMP180;3986;41.884;23.466;2024-03-08T12:28:13;91873.00;;;23.50
7882;BMP180;3986;41.884;23.466;2024-03-08T12:30:47;91875.00;;;21.90
7882;BMP180;3986;41.884;23.466;2024-03-08T12:33:14;91880.00;;;18.30
7882;BMP180;3986;41.884;23.466;2024-03-08T12:35:50;91740.00;;;21.20
7882;BMP180;3986;41.884;23.466;2024-03-08T12:38:20;91860.00;;;18.20
7882;BMP180;3986;41.884;23.466;2024-03-08T12:40:50;91862.00;;;19.40
7882;BMP180;3986;41.884;23.466;2024-03-08T12:43:19;91857.00;;;19.30
7882;BMP180;3986;41.884;23.466;2024-03-08T12:45:47;91863.00;;;18.80
7882;BMP180;3986;41.884;23.466;2024-03-08T12:48:14;91877.00;;;20.50
7882;BMP180;3986;41.884;23.466;2024-03-08T12:50:41;91875.00;;;18.70
7882;BMP180;3986;41.884;23.466;2024-03-08T12:53:09;91878.00;;;19.90
7882;BMP180;3986;41.884;23.466;2024-03-08T12:55:36;91886.00;;;18.70
7882;BMP180;3986;41.884;23.466;2024-03-08T12:58:04;91872.00;;;16.80
7882;BMP180;3986;41.884;23.466;2024-03-08T13:00:32;91874.00;;;16.10
7882;BMP180;3986;41.884;23.466;2024-03-08T13:03:03;91870.00;;;17.20
7882;BMP180;3986;41.884;23.466;2024-03-08T13:05:32;91876.00;;;14.70
7882;BMP180;3986;41.884;23.466;2024-03-08T13:07:58;91874.00;;;14.40
7882;BMP180;3986;41.884;23.466;2024-03-08T13:10:25;91661.00;;;13.60
7882;BMP180;3986;41.884;23.466;2024-03-08T13:12:52;91872.00;;;15.40
7882;BMP180;3986;41.884;23.466;2024-03-08T13:15:20;91876.00;;;17.30
7882;BMP180;3986;41.884;23.466;2024-03-08T13:17:47;91854.00;;;15.40
7882;BMP180;3986;41.884;23.466;2024-03-08T13:20:15;91875.00;;;14.60
7882;BMP180;3986;41.884;23.466;2024-03-08T13:22:45;91878.00;;;14.60
7882;BMP180;3986;41.884;23.466;2024-03-08T13:25:12;91870.00;;;15.10
7882;BMP180;3986;41.884;23.466;2024-03-08T13:27:39;91880.00;;;13.20
7882;BMP180;3986;41.884;23.466;2024-03-08T13:30:08;91843.00;;;14.40
7882;BMP180;3986;41.884;23.466;2024-03-08T13:32:39;91871.00;;;14.10
7882;BMP180;3986;41.884;23.466;2024-03-08T13:35:08;91874.00;;;14.60
7882;BMP180;3986;41.884;23.466;2024-03-08T13:37:40;91862.00;;;18.20
7882;BMP180;3986;41.884;23.466;2024-03-08T13:40:08;91881.00;;;22.30
7882;BMP180;3986;41.884;23.466;2024-03-08T13:42:39;91876.00;;;23.10
7882;BMP180;3986;41.884;23.466;2024-03-08T13:45:08;91888.00;;;23.30
7882;BMP180;3986;41.884;23.466;2024-03-08T13:47:36;91875.00;;;24.00
7882;BMP180;3986;41.884;23.466;2024-03-08T13:50:05;91881.00;;;23.70
7882;BMP180;3986;41.884;23.466;2024-03-08T13:52:32;91869.00;;;21.10
7882;BMP180;3986;41.884;23.466;2024-03-08T13:55:01;91874.00;;;19.90
7882;BMP180;3986;41.884;23.466;2024-03-08T13:57:28;91874.00;;;18.60
7882;BMP180;3986;41.884;23.466;2024-03-08T13:59:54;91871.00;;;15.60
7882;BMP180;3986;41.884;23.466;2024-03-08T14:02:21;91871.00;;;16.20
7882;BMP180;3986;41.884;23.466;2024-03-08T14:04:53;91870.00;;;15.50
7882;BMP180;3986;41.884;23.466;2024-03-08T14:07:20;91864.00;;;15.70
7882;BMP180;3986;41.884;23.466;2024-03-08T14:09:48;91859.00;;;13.30
7882;BMP180;3986;41.884;23.466;2024-03-08T14:12:16;91876.00;;;13.80
7882;BMP180;3986;41.884;23.466;2024-03-08T14:14:42;91869.00;;;12.80
7882;BMP180;3986;41.884;23.466;2024-03-08T14:17:10;91865.00;;;12.90
7882;BMP180;3986;41.884;23.466;2024-03-08T14:19:42;91859.00;;;12.80
7882;BMP180;3986;41.884;23.466;2024-03-08T14:22:09;91856.00;;;12.40
7882;BMP180;3986;41.884;23.466;2024-03-08T14:24:39;91861.00;;;12.20
7882;BMP180;3986;41.884;23.466;2024-03-08T14:27:07;91812.00;;;11.50
7882;BMP180;3986;41.884;23.466;2024-03-08T14:29:36;91854.00;;;12.40
7882;BMP180;3986;41.884;23.466;2024-03-08T14:32:04;91864.00;;;14.10
7882;BMP180;3986;41.884;23.466;2024-03-08T14:34:31;91873.00;;;16.20
7882;BMP180;3986;41.884;23.466;2024-03-08T14:36:59;91873.00;;;19.30
7882;BMP180;3986;41.884;23.466;2024-03-08T14:39:30;91874.00;;;19.90
7882;BMP180;3986;41.884;23.466;2024-03-08T14:41:59;91864.00;;;16.70
7882;BMP180;3986;41.884;23.466;2024-03-08T14:44:27;91863.00;;;14.60
7882;BMP180;3986;41.884;23.466;2024-03-08T14:46:57;91859.00;;;14.80